sensor_id;sensor_type;location;lat;lon;timestamp;pressure;altitude;pressure_sealevel;temperature;humidity
42859;BME280;28505;56.970;40.998;2023-06-19T00:04:43;100364.38;;;4.20;100.00
42859;BME280;28505;56.970;40.998;2023-06-19T00:10:06;100360.47;;;4.28;100.00
42859;BME280;28505;56.970;40.998;2023-06-19T00:15:28;100360.88;;;4.03;100.00
42859;BME280;28505;56.970;40.998;2023-06-19T00:20:51;100384.22;;;4.41;100.00
42859;BME280;28505;56.970;40.998;2023-06-19T00:26:16;100372.38;;;4.20;100.00
42859;BME280;28505;56.970;40.998;2023-06-19T00:31:38;100373.84;;;3.83;100.00
42859;BME280;28505;56.970;40.998;2023-06-19T00:37:01;100370.47;;;4.04;100.00
42859;BME280;28505;56.970;40.998;2023-06-19T00:42:24;100365.34;;;3.86;100.00
42859;BME280;28505;56.970;40.998;2023-06-19T00:47:46;100374.50;;;3.90;100.00
42859;BME280;28505;56.970;40.998;2023-06-19T00:53:08;100385.44;;;4.05;100.00
42859;BME280;28505;56.970;40.998;2023-06-19T00:58:31;100389.63;;;4.01;100.00
42859;BME280;28505;56.970;40.998;2023-06-19T01:03:53;100395.94;;;4.12;100.00
42859;BME280;28505;56.970;40.998;2023-06-19T01:09:16;100395.56;;;4.20;100.00
42859;BME280;28505;56.970;40.998;2023-06-19T01:14:53;100395.63;;;4.08;100.00
42859;BME280;28505;56.970;40.998;2023-06-19T01:20:17;100399.34;;;4.07;100.00
42859;BME280;28505;56.970;40.998;2023-06-19T01:25:39;100391.75;;;3.99;100.00
42859;BME280;28505;56.970;40.998;2023-06-19T01:31:06;100400.59;;;4.16;100.00
42859;BME280;28505;56.970;40.998;2023-06-19T01:36:30;100390.97;;;4.15;100.00
42859;BME280;28505;56.970;40.998;2023-06-19T01:41:54;100397.50;;;4.25;100.00
42859;BME280;28505;56.970;40.998;2023-06-19T01:47:17;100405.78;;;4.40;100.00
42859;BME280;28505;56.970;40.998;2023-06-19T01:52:45;100417.25;;;4.23;100.00
42859;BME280;28505;56.970;40.998;2023-06-19T01:58:07;100403.56;;;4.49;100.00
42859;BME280;28505;56.970;40.998;2023-06-19T02:03:29;100410.44;;;4.61;100.00
42859;BME280;28505;56.970;40.998;2023-06-19T02:08:51;100416.97;;;4.70;100.00
42859;BME280;28505;56.970;40.998;2023-06-19T02:14:14;100403.94;;;4.91;100.00
42859;BME280;28505;56.970;40.998;2023-06-19T02:19:36;100406.34;;;4.92;100.00
42859;BME280;28505;56.970;40.998;2023-06-19T02:25:21;100399.84;;;5.22;100.00
42859;BME280;28505;56.970;40.998;2023-06-19T02:30:43;100385.34;;;5.18;100.00
42859;BME280;28505;56.970;40.998;2023-06-19T02:36:06;100403.28;;;5.39;100.00
42859;BME280;28505;56.970;40.998;2023-06-19T02:41:28;100404.69;;;5.91;100.00
42859;BME280;28505;56.970;40.998;2023-06-19T02:46:51;100401.66;;;6.31;100.00
42859;BME280;28505;56.970;40.998;2023-06-19T02:52:13;100408.00;;;6.52;100.00
42859;BME280;28505;56.970;40.998;2023-06-19T02:57:35;100393.09;;;7.04;100.00
42859;BME280;28505;56.970;40.998;2023-06-19T03:02:57;100401.63;;;7.43;100.00
42859;BME280;28505;56.970;40.998;2023-06-19T03:08:21;100391.00;;;7.74;100.00
42859;BME280;28505;56.970;40.998;2023-06-19T03:13:53;100400.75;;;8.11;100.00
42859;BME280;28505;56.970;40.998;2023-06-19T03:19:15;100405.16;;;8.48;100.00
42859;BME280;28505;56.970;40.998;2023-06-19T03:24:37;100397.28;;;9.23;100.00
42859;BME280;28505;56.970;40.998;2023-06-19T03:30:13;100399.31;;;9.56;100.00
42859;BME280;28505;56.970;40.998;2023-06-19T03:35:36;100396.06;;;10.09;100.00
42859;BME280;28505;56.970;40.998;2023-06-19T03:40:59;100395.75;;;10.60;100.00
42859;BME280;28505;56.970;40.998;2023-06-19T03:46:21;100382.41;;;11.51;100.00
42859;BME280;28505;56.970;40.998;2023-06-19T03:51:48;100375.97;;;11.23;100.00
42859;BME280;28505;56.970;40.998;2023-06-19T03:57:10;100390.56;;;11.46;100.00
42859;BME280;28505;56.970;40.998;2023-06-19T04:02:32;100387.38;;;12.06;100.00
42859;BME280;28505;56.970;40.998;2023-06-19T04:07:54;100381.22;;;12.38;93.89
42859;BME280;28505;56.970;40.998;2023-06-19T04:13:16;100386.63;;;12.71;88.72
42859;BME280;28505;56.970;40.998;2023-06-19T04:18:38;100395.81;;;12.88;96.46
42859;BME280;28505;56.970;40.998;2023-06-19T04:24:00;100399.09;;;13.32;73.55
42859;BME280;28505;56.970;40.998;2023-06-19T04:29:23;100382.41;;;13.66;80.70
42859;BME280;28505;56.970;40.998;2023-06-19T04:34:45;100384.00;;;14.40;75.87
42859;BME280;28505;56.970;40.998;2023-06-19T04:40:08;100384.41;;;14.69;73.96
42859;BME280;28505;56.970;40.998;2023-06-19T04:45:31;100388.09;;;15.44;71.70
42859;BME280;28505;56.970;40.998;2023-06-19T04:50:53;100379.25;;;15.70;64.04
42859;BME280;28505;56.970;40.998;2023-06-19T04:56:18;100382.63;;;15.27;66.53
42859;BME280;28505;56.970;40.998;2023-06-19T05:01:40;100372.22;;;16.38;57.96
42859;BME280;28505;56.970;40.998;2023-06-19T05:07:02;100366.25;;;16.71;56.31
42859;BME280;28505;56.970;40.998;2023-06-19T05:12:27;100357.03;;;15.77;55.01
42859;BME280;28505;56.970;40.998;2023-06-19T05:17:49;100360.66;;;16.76;56.55
42859;BME280;28505;56.970;40.998;2023-06-19T05:23:11;100354.75;;;17.42;52.25
42859;BME280;28505;56.970;40.998;2023-06-19T05:28:34;100354.97;;;17.37;49.33
42859;BME280;28505;56.970;40.998;2023-06-19T05:33:57;100361.56;;;17.57;54.62
42859;BME280;28505;56.970;40.998;2023-06-19T05:39:20;100354.66;;;17.00;53.15
42859;BME280;28505;56.970;40.998;2023-06-19T05:44:42;100345.88;;;17.24;54.47
42859;BME280;28505;56.970;40.998;2023-06-19T05:50:05;100359.06;;;18.36;52.76
42859;BME280;28505;56.970;40.998;2023-06-19T05:55:27;100353.84;;;17.00;49.71
42859;BME280;28505;56.970;40.998;2023-06-19T06:00:49;100355.91;;;18.13;46.20
42859;BME280;28505;56.970;40.998;2023-06-19T06:06:11;100347.97;;;17.27;49.30
42859;BME280;28505;56.970;40.998;2023-06-19T06:11:33;100349.16;;;17.39;43.77
42859;BME280;28505;56.970;40.998;2023-06-19T06:16:55;100357.34;;;17.39;44.18
42859;BME280;28505;56.970;40.998;2023-06-19T06:22:17;100358.06;;;18.74;43.60
42859;BME280;28505;56.970;40.998;2023-06-19T06:27:41;100352.50;;;17.95;46.97
42859;BME280;28505;56.970;40.998;2023-06-19T06:33:04;100344.66;;;18.81;44.65
42859;BME280;28505;56.970;40.998;2023-06-19T06:38:26;100330.00;;;17.56;44.52
42859;BME280;28505;56.970;40.998;2023-06-19T06:43:48;100348.66;;;18.95;42.59
42859;BME280;28505;56.970;40.998;2023-06-19T06:49:11;100335.59;;;19.01;45.49
42859;BME280;28505;56.970;40.998;2023-06-19T06:54:33;100337.72;;;19.45;42.54
42859;BME280;28505;56.970;40.998;2023-06-19T06:59:55;100323.03;;;20.30;42.94
42859;BME280;28505;56.970;40.998;2023-06-19T07:05:17;100327.31;;;18.64;41.04
42859;BME280;28505;56.970;40.998;2023-06-19T07:10:39;100328.75;;;19.07;42.72
42859;BME280;28505;56.970;40.998;2023-06-19T07:16:01;100323.06;;;19.25;47.26
42859;BME280;28505;56.970;40.998;2023-06-19T07:21:23;100309.84;;;18.78;41.61
42859;BME280;28505;56.970;40.998;2023-06-19T07:26:48;100321.66;;;18.82;38.60
42859;BME280;28505;56.970;40.998;2023-06-19T07:32:10;100318.16;;;18.48;41.12
42859;BME280;28505;56.970;40.998;2023-06-19T07:37:32;100312.16;;;17.59;42.33
42859;BME280;28505;56.970;40.998;2023-06-19T07:48:36;100294.75;;;18.59;43.66
42859;BME280;28505;56.970;40.998;2023-06-19T07:53:58;100287.69;;;19.56;41.36
42859;BME280;28505;56.970;40.998;2023-06-19T07:59:21;100301.56;;;18.53;40.34
42859;BME280;28505;56.970;40.998;2023-06-19T08:04:44;100293.38;;;18.53;43.80
42859;BME280;28505;56.970;40.998;2023-06-19T08:10:07;100287.69;;;17.71;49.27
42859;BME280;28505;56.970;40.998;2023-06-19T08:15:35;100287.19;;;18.32;45.57
42859;BME280;28505;56.970;40.998;2023-06-19T08:20:57;100297.41;;;18.22;48.59
42859;BME280;28505;56.970;40.998;2023-06-19T08:26:19;100293.78;;;18.88;43.13
42859;BME280;28505;56.970;40.998;2023-06-19T08:31:42;100288.19;;;19.09;40.03
42859;BME280;28505;56.970;40.998;2023-06-19T08:37:05;100283.69;;;18.43;38.76
42859;BME280;28505;56.970;40.998;2023-06-19T08:42:28;100274.34;;;17.78;44.92
42859;BME280;28505;56.970;40.998;2023-06-19T08:47:49;100278.16;;;18.19;41.50
42859;BME280;28505;56.970;40.998;2023-06-19T08:53:19;100265.88;;;17.71;39.75
42859;BME280;28505;56.970;40.998;2023-06-19T08:58:41;100267.41;;;18.80;47.15
42859;BME280;28505;56.970;40.998;2023-06-19T09:04:12;100254.56;;;19.46;45.06
42859;BME280;28505;56.970;40.998;2023-06-19T09:09:34;100260.66;;;18.20;44.78
42859;BME280;28505;56.970;40.998;2023-06-19T09:14:57;100248.44;;;18.63;45.44
42859;BME280;28505;56.970;40.998;2023-06-19T09:20:26;100246.56;;;19.00;46.75
42859;BME280;28505;56.970;40.998;2023-06-19T09:25:50;100240.41;;;18.79;47.30
42859;BME280;28505;56.970;40.998;2023-06-19T09:31:14;100225.59;;;19.04;42.75
42859;BME280;28505;56.970;40.998;2023-06-19T09:36:38;100219.00;;;18.68;43.36
42859;BME280;28505;56.970;40.998;2023-06-19T09:42:02;100205.22;;;18.65;45.76
42859;BME280;28505;56.970;40.998;2023-06-19T09:47:36;100208.72;;;18.53;46.40
42859;BME280;28505;56.970;40.998;2023-06-19T09:52:58;100206.91;;;19.18;44.14
42859;BME280;28505;56.970;40.998;2023-06-19T09:58:26;100186.34;;;19.37;45.39
42859;BME280;28505;56.970;40.998;2023-06-19T10:03:49;100168.69;;;18.33;43.86
42859;BME280;28505;56.970;40.998;2023-06-19T10:09:11;100185.31;;;18.77;44.21
42859;BME280;28505;56.970;40.998;2023-06-19T10:14:34;100171.34;;;18.78;48.42
42859;BME280;28505;56.970;40.998;2023-06-19T10:20:07;100165.84;;;19.43;46.59
42859;BME280;28505;56.970;40.998;2023-06-19T10:25:42;100157.53;;;18.62;42.21
42859;BME280;28505;56.970;40.998;2023-06-19T10:31:06;100157.56;;;18.87;47.11
42859;BME280;28505;56.970;40.998;2023-06-19T10:36:32;100137.88;;;18.81;46.10
42859;BME280;28505;56.970;40.998;2023-06-19T10:41:54;100155.25;;;18.28;47.70
42859;BME280;28505;56.970;40.998;2023-06-19T10:47:15;100143.22;;;18.16;46.79
42859;BME280;28505;56.970;40.998;2023-06-19T10:52:40;100147.16;;;18.07;46.61
42859;BME280;28505;56.970;40.998;2023-06-19T10:58:03;100136.16;;;18.64;45.47
42859;BME280;28505;56.970;40.998;2023-06-19T11:03:25;100135.03;;;18.78;46.54
42859;BME280;28505;56.970;40.998;2023-06-19T11:08:52;100126.13;;;18.93;46.02
42859;BME280;28505;56.970;40.998;2023-06-19T11:14:15;100121.63;;;18.48;45.57
42859;BME280;28505;56.970;40.998;2023-06-19T11:19:38;100113.06;;;18.49;46.00
42859;BME280;28505;56.970;40.998;2023-06-19T11:25:08;100112.16;;;18.45;46.85
42859;BME280;28505;56.970;40.998;2023-06-19T11:30:32;100103.13;;;18.94;46.97
42859;BME280;28505;56.970;40.998;2023-06-19T11:35:59;100107.16;;;18.11;47.25
42859;BME280;28505;56.970;40.998;2023-06-19T11:41:29;100089.59;;;18.98;48.33
42859;BME280;28505;56.970;40.998;2023-06-19T11:46:57;100085.94;;;19.22;49.01
42859;BME280;28505;56.970;40.998;2023-06-19T11:52:28;100081.47;;;19.01;47.68
42859;BME280;28505;56.970;40.998;2023-06-19T11:57:51;100067.47;;;19.31;49.04
42859;BME280;28505;56.970;40.998;2023-06-19T12:03:14;100060.13;;;19.63;50.53
42859;BME280;28505;56.970;40.998;2023-06-19T12:08:37;100062.75;;;19.15;45.83
42859;BME280;28505;56.970;40.998;2023-06-19T12:13:59;100055.25;;;19.12;49.64
42859;BME280;28505;56.970;40.998;2023-06-19T12:19:22;100047.72;;;19.37;49.66
42859;BME280;28505;56.970;40.998;2023-06-19T12:24:44;100040.31;;;19.66;46.40
42859;BME280;28505;56.970;40.998;2023-06-19T12:30:07;100037.41;;;18.62;50.27
42859;BME280;28505;56.970;40.998;2023-06-19T12:35:29;100028.34;;;19.58;48.32
42859;BME280;28505;56.970;40.998;2023-06-19T12:40:52;100032.47;;;19.36;50.00
42859;BME280;28505;56.970;40.998;2023-06-19T12:46:14;100027.50;;;19.10;50.31
42859;BME280;28505;56.970;40.998;2023-06-19T12:51:37;100016.19;;;19.56;49.75
42859;BME280;28505;56.970;40.998;2023-06-19T12:57:02;100001.09;;;19.46;48.66
42859;BME280;28505;56.970;40.998;2023-06-19T13:02:51;99980.72;;;19.44;48.22
42859;BME280;28505;56.970;40.998;2023-06-19T13:08:28;99987.31;;;19.27;50.41
42859;BME280;28505;56.970;40.998;2023-06-19T13:14:09;99965.13;;;19.76;49.70
42859;BME280;28505;56.970;40.998;2023-06-19T13:19:37;99969.91;;;19.79;49.34
42859;BME280;28505;56.970;40.998;2023-06-19T13:25:12;99958.75;;;19.40;51.51
42859;BME280;28505;56.970;40.998;2023-06-19T13:30:34;99961.25;;;19.77;50.96
42859;BME280;28505;56.970;40.998;2023-06-19T13:35:56;99952.94;;;19.89;51.53
42859;BME280;28505;56.970;40.998;2023-06-19T13:41:19;99945.53;;;19.74;50.23
42859;BME280;28505;56.970;40.998;2023-06-19T13:46:42;99933.78;;;19.89;47.29
42859;BME280;28505;56.970;40.998;2023-06-19T13:52:05;99933.88;;;19.77;48.46
42859;BME280;28505;56.970;40.998;2023-06-19T13:57:28;99929.84;;;19.71;48.05
42859;BME280;28505;56.970;40.998;2023-06-19T14:02:50;99925.13;;;19.87;50.63
42859;BME280;28505;56.970;40.998;2023-06-19T14:08:12;99917.47;;;19.77;50.64
42859;BME280;28505;56.970;40.998;2023-06-19T14:13:34;99915.47;;;20.48;48.18
42859;BME280;28505;56.970;40.998;2023-06-19T14:18:57;99915.41;;;20.44;49.39
42859;BME280;28505;56.970;40.998;2023-06-19T14:24:19;99911.22;;;20.11;50.09
42859;BME280;28505;56.970;40.998;2023-06-19T14:29:41;99899.91;;;20.71;50.43
42859;BME280;28505;56.970;40.998;2023-06-19T14:35:06;99902.72;;;20.17;47.99
42859;BME280;28505;56.970;40.998;2023-06-19T14:40:28;99905.25;;;20.64;46.13
42859;BME280;28505;56.970;40.998;2023-06-19T14:45:50;99896.97;;;21.26;47.70
42859;BME280;28505;56.970;40.998;2023-06-19T15:55:18;99851.81;;;22.00;44.50
42859;BME280;28505;56.970;40.998;2023-06-19T16:00:41;99845.47;;;20.27;47.58
42859;BME280;28505;56.970;40.998;2023-06-19T16:06:04;99851.34;;;20.68;48.46
42859;BME280;28505;56.970;40.998;2023-06-19T16:11:29;99851.16;;;20.80;49.96
42859;BME280;28505;56.970;40.998;2023-06-19T16:16:51;99845.44;;;19.37;51.51
42859;BME280;28505;56.970;40.998;2023-06-19T16:22:13;99855.69;;;18.93;51.30
42859;BME280;28505;56.970;40.998;2023-06-19T16:27:36;99853.00;;;18.37;51.89
42859;BME280;28505;56.970;40.998;2023-06-19T16:32:58;99859.91;;;18.18;52.87
42859;BME280;28505;56.970;40.998;2023-06-19T16:38:21;99857.38;;;17.73;55.39
42859;BME280;28505;56.970;40.998;2023-06-19T16:43:43;99851.81;;;17.82;54.41
42859;BME280;28505;56.970;40.998;2023-06-19T16:49:06;99844.09;;;17.59;53.69
42859;BME280;28505;56.970;40.998;2023-06-19T16:54:27;99846.72;;;17.31;56.26
42859;BME280;28505;56.970;40.998;2023-06-19T16:59:51;99847.06;;;17.05;58.11
42859;BME280;28505;56.970;40.998;2023-06-19T17:05:14;99836.97;;;17.05;58.15
42859;BME280;28505;56.970;40.998;2023-06-19T17:10:36;99840.47;;;16.81;60.14
42859;BME280;28505;56.970;40.998;2023-06-19T17:15:58;99837.31;;;16.71;59.20
42859;BME280;28505;56.970;40.998;2023-06-19T17:21:20;99844.41;;;16.51;62.47
42859;BME280;28505;56.970;40.998;2023-06-19T17:26:42;99845.50;;;16.37;62.60
42859;BME280;28505;56.970;40.998;2023-06-19T17:32:05;99846.66;;;16.36;62.14
42859;BME280;28505;56.970;40.998;2023-06-19T17:37:27;99842.59;;;16.22;64.35
42859;BME280;28505;56.970;40.998;2023-06-19T17:42:50;99835.94;;;16.19;62.60
42859;BME280;28505;56.970;40.998;2023-06-19T17:48:12;99833.41;;;16.14;62.08
42859;BME280;28505;56.970;40.998;2023-06-19T17:53:34;99828.38;;;16.04;62.57
42859;BME280;28505;56.970;40.998;2023-06-19T17:58:57;99828.19;;;15.67;67.64
42859;BME280;28505;56.970;40.998;2023-06-19T18:04:19;99828.00;;;15.63;66.13
42859;BME280;28505;56.970;40.998;2023-06-19T18:09:41;99835.47;;;15.45;69.60
42859;BME280;28505;56.970;40.998;2023-06-19T18:15:10;99837.94;;;15.30;70.06
42859;BME280;28505;56.970;40.998;2023-06-19T18:20:32;99830.41;;;15.06;73.47
42859;BME280;28505;56.970;40.998;2023-06-19T18:25:55;99828.31;;;15.11;72.83
42859;BME280;28505;56.970;40.998;2023-06-19T18:31:17;99834.25;;;14.96;73.49
42859;BME280;28505;56.970;40.998;2023-06-19T18:36:40;99827.44;;;14.81;76.51
42859;BME280;28505;56.970;40.998;2023-06-19T18:42:03;99833.06;;;14.76;79.50
42859;BME280;28505;56.970;40.998;2023-06-19T18:47:27;99820.66;;;14.32;90.05
42859;BME280;28505;56.970;40.998;2023-06-19T18:52:50;99795.66;;;14.09;91.25
42859;BME280;28505;56.970;40.998;2023-06-19T18:58:12;99822.94;;;14.03;90.73
42859;BME280;28505;56.970;40.998;2023-06-19T19:03:37;99828.50;;;13.98;100.00
42859;BME280;28505;56.970;40.998;2023-06-19T19:09:00;99820.06;;;13.74;100.00
42859;BME280;28505;56.970;40.998;2023-06-19T19:14:22;99820.78;;;13.31;100.00
42859;BME280;28505;56.970;40.998;2023-06-19T19:19:45;99817.69;;;13.15;100.00
42859;BME280;28505;56.970;40.998;2023-06-19T19:25:08;99813.97;;;13.02;100.00
42859;BME280;28505;56.970;40.998;2023-06-19T19:30:30;99808.13;;;12.78;100.00
42859;BME280;28505;56.970;40.998;2023-06-19T19:35:53;99811.25;;;12.62;100.00
42859;BME280;28505;56.970;40.998;2023-06-19T19:41:18;99805.22;;;12.65;100.00
42859;BME280;28505;56.970;40.998;2023-06-19T19:46:40;99804.31;;;12.79;100.00
42859;BME280;28505;56.970;40.998;2023-06-19T19:52:06;99802.44;;;12.88;100.00
42859;BME280;28505;56.970;40.998;2023-06-19T19:57:28;99814.63;;;13.17;100.00
42859;BME280;28505;56.970;40.998;2023-06-19T20:02:50;99804.66;;;13.26;100.00
42859;BME280;28505;56.970;40.998;2023-06-19T20:08:13;99814.91;;;13.38;100.00
42859;BME280;28505;56.970;40.998;2023-06-19T20:13:35;99805.00;;;13.24;100.00
42859;BME280;28505;56.970;40.998;2023-06-19T20:18:57;99809.28;;;13.34;100.00
42859;BME280;28505;56.970;40.998;2023-06-19T20:24:19;99812.00;;;13.34;100.00
42859;BME280;28505;56.970;40.998;2023-06-19T20:29:42;99808.03;;;13.31;100.00
42859;BME280;28505;56.970;40.998;2023-06-19T20:35:04;99819.03;;;13.35;100.00
42859;BME280;28505;56.970;40.998;2023-06-19T20:40:26;99816.94;;;13.32;100.00
42859;BME280;28505;56.970;40.998;2023-06-19T20:45:49;99819.38;;;13.42;100.00
42859;BME280;28505;56.970;40.998;2023-06-19T20:51:11;99802.22;;;13.16;100.00
42859;BME280;28505;56.970;40.998;2023-06-19T20:56:34;99819.69;;;13.49;100.00
42859;BME280;28505;56.970;40.998;2023-06-19T21:01:57;99815.75;;;13.64;100.00
42859;BME280;28505;56.970;40.998;2023-06-19T21:07:21;99810.47;;;13.59;100.00
42859;BME280;28505;56.970;40.998;2023-06-19T21:12:44;99813.97;;;13.51;100.00
42859;BME280;28505;56.970;40.998;2023-06-19T21:18:06;99806.22;;;13.18;100.00
42859;BME280;28505;56.970;40.998;2023-06-19T21:23:28;99804.91;;;13.07;100.00
42859;BME280;28505;56.970;40.998;2023-06-19T21:28:50;99811.13;;;13.16;100.00
42859;BME280;28505;56.970;40.998;2023-06-19T21:34:12;99800.16;;;13.12;100.00
42859;BME280;28505;56.970;40.998;2023-06-19T21:39:34;99809.19;;;12.99;100.00
42859;BME280;28505;56.970;40.998;2023-06-19T21:44:57;99803.28;;;12.97;100.00
42859;BME280;28505;56.970;40.998;2023-06-19T21:50:27;99805.84;;;13.02;100.00
42859;BME280;28505;56.970;40.998;2023-06-19T21:55:49;99797.72;;;13.02;100.00
42859;BME280;28505;56.970;40.998;2023-06-19T22:01:11;99801.53;;;13.01;100.00
42859;BME280;28505;56.970;40.998;2023-06-19T22:06:33;99797.22;;;13.00;100.00
42859;BME280;28505;56.970;40.998;2023-06-19T22:11:55;99803.44;;;12.92;100.00
42859;BME280;28505;56.970;40.998;2023-06-19T22:17:18;99786.69;;;12.90;100.00
42859;BME280;28505;56.970;40.998;2023-06-19T22:22:46;99788.44;;;12.86;100.00
42859;BME280;28505;56.970;40.998;2023-06-19T22:28:09;99781.84;;;12.70;100.00
42859;BME280;28505;56.970;40.998;2023-06-19T22:33:31;99784.28;;;12.80;100.00
42859;BME280;28505;56.970;40.998;2023-06-19T22:38:54;99777.91;;;12.76;100.00
42859;BME280;28505;56.970;40.998;2023-06-19T22:44:16;99767.06;;;12.45;100.00
42859;BME280;28505;56.970;40.998;2023-06-19T22:49:38;99768.22;;;12.52;100.00
42859;BME280;28505;56.970;40.998;2023-06-19T22:55:00;99767.91;;;12.54;100.00
42859;BME280;28505;56.970;40.998;2023-06-19T23:00:24;99776.81;;;12.54;100.00
42859;BME280;28505;56.970;40.998;2023-06-19T23:05:46;99765.88;;;12.59;100.00
42859;BME280;28505;56.970;40.998;2023-06-19T23:11:09;99762.56;;;12.62;100.00
42859;BME280;28505;56.970;40.998;2023-06-19T23:16:31;99772.66;;;12.48;100.00
42859;BME280;28505;56.970;40.998;2023-06-19T23:21:54;99773.09;;;12.41;100.00
42859;BME280;28505;56.970;40.998;2023-06-19T23:27:16;99771.75;;;12.61;100.00
42859;BME280;28505;56.970;40.998;2023-06-19T23:32:40;99774.97;;;12.63;100.00
42859;BME280;28505;56.970;40.998;2023-06-19T23:38:02;99778.63;;;12.68;100.00
42859;BME280;28505;56.970;40.998;2023-06-19T23:43:24;99773.50;;;12.57;100.00
42859;BME280;28505;56.970;40.998;2023-06-19T23:48:46;99775.25;;;12.62;100.00
42859;BME280;28505;56.970;40.998;2023-06-19T23:54:08;99760.78;;;12.27;100.00
42859;BME280;28505;56.970;40.998;2023-06-19T23:59:30;99759.41;;;12.38;100.00
